createdAt,value
2022-08-14T00:01:24.189Z,16.60
2022-08-14T00:06:52.332Z,16.50
2022-08-14T00:12:23.733Z,16.40
2022-08-14T00:17:53.795Z,16.40
2022-08-14T00:23:22.036Z,16.30
2022-08-14T00:28:54.411Z,16.20
2022-08-14T00:34:36.533Z,16.10
2022-08-14T00:40:27.451Z,16.10
2022-08-14T00:46:08.977Z,16.00
2022-08-14T00:51:57.090Z,15.90
2022-08-14T00:57:32.376Z,15.80
2022-08-14T01:03:01.118Z,15.80
2022-08-14T01:08:51.495Z,15.80
2022-08-14T01:14:27.606Z,15.60
2022-08-14T01:20:27.513Z,15.50
2022-08-14T01:25:59.004Z,15.50
2022-08-14T01:31:36.936Z,15.30
2022-08-14T01:37:06.066Z,15.40
2022-08-14T01:42:44.585Z,15.30
2022-08-14T01:48:16.140Z,15.40
2022-08-14T01:53:55.398Z,15.20
2022-08-14T01:59:38.036Z,15.10
2022-08-14T02:05:08.234Z,15.20
2022-08-14T02:10:40.475Z,15.10
2022-08-14T02:16:22.572Z,15.00
2022-08-14T02:21:55.126Z,15.00
2022-08-14T02:33:11.450Z,14.50
2022-08-14T02:38:40.836Z,14.80
2022-08-14T02:44:12.603Z,14.60
2022-08-14T02:49:50.580Z,14.80
2022-08-14T02:55:26.238Z,14.50
2022-08-14T03:00:58.144Z,14.30
2022-08-14T03:06:34.908Z,14.50
2022-08-14T03:12:17.767Z,14.40
2022-08-14T03:17:58.595Z,14.30
2022-08-14T03:23:42.018Z,14.40
2022-08-14T03:29:20.969Z,14.20
2022-08-14T03:34:58.504Z,14.20
2022-08-14T03:40:34.468Z,12.60
2022-08-14T03:46:10.151Z,13.90
2022-08-14T03:52:18.164Z,13.90
2022-08-14T03:57:56.291Z,14.10
2022-08-14T04:03:27.351Z,13.90
2022-08-14T04:08:58.176Z,13.90
2022-08-14T04:14:32.650Z,13.80
2022-08-14T04:20:07.708Z,13.70
2022-08-14T04:25:40.546Z,13.70
2022-08-14T04:32:56.493Z,13.90
2022-08-14T04:37:30.275Z,13.80
2022-08-14T04:43:26.138Z,14.00
2022-08-14T04:49:10.309Z,14.10
2022-08-14T04:54:44.110Z,14.40
2022-08-14T05:00:19.471Z,14.80
2022-08-14T05:06:01.075Z,14.60
2022-08-14T05:11:36.587Z,14.80
2022-08-14T05:17:06.924Z,15.10
2022-08-14T05:22:40.514Z,15.20
2022-08-14T05:28:20.447Z,15.40
2022-08-14T05:34:01.238Z,15.50
2022-08-14T05:39:35.475Z,15.80
2022-08-14T05:45:11.277Z,16.10
2022-08-14T05:50:50.698Z,16.10
2022-08-14T05:56:26.366Z,16.50
2022-08-14T06:02:06.836Z,16.50
2022-08-14T06:07:40.276Z,17.00
2022-08-14T06:13:09.570Z,17.00
2022-08-14T06:18:45.960Z,17.50
2022-08-14T06:24:19.681Z,17.80
2022-08-14T06:29:52.087Z,18.00
2022-08-14T06:35:21.509Z,18.40
2022-08-14T06:40:53.309Z,18.50
2022-08-14T06:46:34.254Z,19.10
2022-08-14T06:52:06.403Z,19.20
2022-08-14T06:57:48.077Z,19.40
2022-08-14T07:03:36.269Z,20.00
2022-08-14T07:09:19.822Z,20.40
2022-08-14T07:14:55.702Z,20.40
2022-08-14T07:20:32.017Z,21.10
2022-08-14T07:26:07.588Z,21.50
2022-08-14T07:31:44.147Z,21.60
2022-08-14T07:37:19.421Z,22.00
2022-08-14T07:42:55.137Z,22.50
2022-08-14T07:48:25.282Z,22.60
2022-08-14T07:53:56.786Z,23.30
2022-08-14T07:59:42.624Z,23.40
2022-08-14T08:05:25.871Z,23.80
2022-08-14T08:11:02.738Z,23.80
2022-08-14T08:16:41.137Z,24.30
2022-08-14T08:22:17.655Z,24.50
2022-08-14T08:28:03.494Z,24.80
2022-08-14T08:33:52.987Z,24.80
2022-08-14T08:39:30.937Z,25.00
2022-08-14T08:45:40.585Z,25.20
2022-08-14T08:51:10.860Z,25.50
2022-08-14T08:56:59.108Z,25.50
2022-08-14T09:02:30.004Z,25.70
2022-08-14T09:08:31.600Z,25.90
2022-08-14T09:14:02.861Z,26.10
2022-08-14T09:19:38.470Z,26.10
2022-08-14T09:25:15.028Z,26.50
2022-08-14T09:30:55.553Z,26.60
2022-08-14T09:36:43.764Z,26.70
2022-08-14T09:42:34.040Z,27.00
2022-08-14T09:48:32.128Z,27.00
2022-08-14T09:54:17.815Z,27.50
2022-08-14T10:00:00.983Z,27.50
2022-08-14T10:05:37.935Z,27.90
2022-08-14T10:11:43.513Z,27.90
2022-08-14T10:17:38.282Z,28.10
2022-08-14T10:23:23.724Z,28.20
2022-08-14T10:29:18.484Z,28.50
2022-08-14T10:34:52.587Z,28.80
2022-08-14T10:40:38.137Z,28.90
2022-08-14T10:47:40.288Z,29.20
2022-08-14T10:52:24.647Z,29.30
2022-08-14T10:57:58.981Z,29.60
2022-08-14T11:03:55.702Z,29.60
2022-08-14T11:09:31.550Z,29.80
2022-08-14T11:15:02.192Z,29.80
2022-08-14T11:20:38.441Z,29.80
2022-08-14T11:26:19.839Z,30.00
2022-08-14T11:31:51.834Z,30.10
2022-08-14T11:37:36.384Z,30.00
2022-08-14T11:43:14.748Z,30.00
2022-08-14T11:48:59.161Z,30.10
2022-08-14T12:00:19.495Z,30.50
2022-08-14T12:05:49.690Z,30.80
2022-08-14T12:11:18.743Z,30.70
2022-08-14T12:17:13.192Z,30.60
2022-08-14T12:22:55.569Z,30.70
2022-08-14T12:28:27.287Z,30.80
2022-08-14T12:34:08.794Z,30.80
2022-08-14T12:39:48.478Z,31.00
2022-08-14T12:45:39.606Z,30.90
2022-08-14T12:51:25.249Z,30.90
2022-08-14T12:57:20.068Z,31.10
2022-08-14T13:02:56.725Z,31.20
2022-08-14T13:08:34.017Z,31.00
2022-08-14T13:14:07.737Z,31.10
2022-08-14T13:19:49.665Z,31.20
2022-08-14T13:25:26.772Z,31.30
2022-08-14T13:30:58.446Z,31.50
2022-08-14T13:36:51.558Z,31.70
2022-08-14T13:42:30.768Z,31.50
2022-08-14T13:48:05.840Z,31.70
2022-08-14T13:54:10.283Z,31.70
2022-08-14T13:59:46.452Z,31.90
2022-08-14T14:05:23.059Z,30.70
2022-08-14T14:10:57.152Z,32.50
2022-08-14T14:16:30.839Z,32.60
2022-08-14T14:22:02.885Z,32.60
2022-08-14T14:27:40.753Z,32.20
2022-08-14T14:39:35.394Z,32.70
2022-08-14T14:45:24.316Z,34.70
2022-08-14T14:51:02.715Z,39.80
2022-08-14T14:56:50.721Z,37.60
2022-08-14T15:02:49.737Z,36.40
2022-08-14T15:08:55.656Z,35.10
2022-08-14T15:14:55.460Z,33.30
2022-08-14T15:31:43.982Z,31.00
2022-08-14T15:37:22.921Z,30.60
2022-08-14T15:42:58.725Z,30.40
2022-08-14T15:48:28.132Z,30.20
2022-08-14T15:53:58.994Z,30.00
2022-08-14T15:59:48.059Z,29.60
2022-08-14T16:05:25.505Z,29.40
2022-08-14T16:10:53.606Z,29.20
2022-08-14T16:16:35.070Z,29.10
2022-08-14T16:23:00.288Z,29.10
2022-08-14T16:28:03.564Z,28.90
2022-08-14T16:33:59.120Z,29.00
2022-08-14T16:39:25.055Z,28.90
2022-08-14T16:44:53.134Z,30.90
2022-08-14T16:50:43.019Z,28.50
2022-08-14T16:56:23.545Z,28.30
2022-08-14T17:02:05.235Z,27.90
2022-08-14T17:07:33.453Z,28.00
2022-08-14T17:13:27.415Z,27.80
2022-08-14T17:19:19.517Z,27.60
2022-08-14T17:24:57.483Z,27.50
2022-08-14T17:30:59.493Z,27.40
2022-08-14T17:36:31.968Z,27.10
2022-08-14T17:42:02.018Z,27.40
2022-08-14T17:47:33.952Z,27.00
2022-08-14T17:53:03.180Z,26.80
2022-08-14T17:58:41.672Z,26.70
2022-08-14T18:04:28.015Z,26.70
2022-08-14T18:10:00.054Z,26.50
2022-08-14T18:15:50.990Z,26.30
2022-08-14T18:21:42.449Z,26.30
2022-08-14T18:27:23.111Z,26.00
2022-08-14T18:32:54.945Z,25.90
2022-08-14T18:38:42.999Z,25.70
2022-08-14T18:44:14.546Z,25.60
2022-08-14T18:50:26.988Z,25.40
2022-08-14T18:56:09.326Z,25.30
2022-08-14T19:01:38.401Z,25.20
2022-08-14T19:07:17.713Z,25.10
2022-08-14T19:13:01.372Z,24.80
2022-08-14T19:18:32.526Z,24.60
2022-08-14T19:24:27.830Z,24.60
2022-08-14T19:30:19.364Z,24.30
2022-08-14T19:35:59.826Z,24.10
2022-08-14T19:41:37.491Z,24.00
2022-08-14T19:47:11.520Z,23.80
2022-08-14T19:52:40.140Z,23.70
2022-08-14T19:58:10.453Z,23.70
2022-08-14T20:04:00.469Z,23.50
2022-08-14T20:11:08.058Z,23.40
2022-08-14T20:15:47.177Z,23.30
2022-08-14T20:21:16.242Z,23.20
2022-08-14T20:26:47.090Z,23.10
2022-08-14T20:32:15.441Z,23.00
2022-08-14T20:37:43.576Z,23.00
2022-08-14T20:43:39.325Z,22.90
2022-08-14T20:49:18.501Z,22.70
2022-08-14T20:54:51.523Z,22.50
2022-08-14T21:00:52.259Z,22.50
2022-08-14T21:07:23.035Z,22.30
2022-08-14T21:12:35.815Z,22.30
2022-08-14T21:18:05.398Z,22.20
2022-08-14T21:23:54.686Z,21.90
2022-08-14T21:29:24.104Z,21.80
2022-08-14T21:34:55.052Z,21.70
2022-08-14T21:40:42.264Z,21.60
2022-08-14T21:46:13.927Z,21.50
2022-08-14T21:51:55.043Z,21.30
2022-08-14T21:57:55.801Z,21.20
2022-08-14T22:03:19.290Z,21.00
2022-08-14T22:08:52.759Z,20.90
2022-08-14T22:14:25.345Z,20.80
2022-08-14T22:20:00.017Z,20.80
2022-08-14T22:25:33.120Z,20.70
2022-08-14T22:31:18.119Z,20.70
2022-08-14T22:36:49.252Z,20.60
2022-08-14T22:42:21.374Z,20.70
2022-08-14T22:47:50.845Z,20.60
2022-08-14T22:53:29.350Z,20.50
2022-08-14T22:59:01.819Z,20.40
2022-08-14T23:04:35.272Z,20.40
2022-08-14T23:10:31.824Z,20.40
2022-08-14T23:16:00.089Z,20.20
2022-08-14T23:21:28.908Z,20.20
2022-08-14T23:26:57.972Z,20.10
2022-08-14T23:32:25.735Z,20.20
2022-08-14T23:38:01.982Z,20.20
2022-08-14T23:43:31.305Z,20.30
2022-08-14T23:48:59.438Z,20.30
2022-08-14T23:54:47.425Z,20.30
